createdAt,value
2022-12-22T00:01:00.259Z,99562.81
2022-12-22T00:06:22.403Z,99559.22
2022-12-22T00:11:43.009Z,99547.31
2022-12-22T00:17:03.561Z,99539.47
2022-12-22T00:22:31.825Z,99533.09
2022-12-22T00:27:51.872Z,99522.53
2022-12-22T00:33:12.617Z,99518.75
2022-12-22T00:38:35.656Z,99526.97
2022-12-22T00:43:55.846Z,99508.00
2022-12-22T00:49:16.376Z,99505.09
2022-12-22T00:54:39.126Z,99494.97
2022-12-22T00:59:59.666Z,99489.25
2022-12-22T01:05:19.998Z,99477.63
2022-12-22T01:10:42.068Z,99469.47
2022-12-22T01:16:02.556Z,99468.66
2022-12-22T01:21:23.186Z,99452.78
2022-12-22T01:26:45.009Z,99442.50
2022-12-22T01:32:05.194Z,99432.81
2022-12-22T01:37:25.684Z,99405.53
2022-12-22T01:42:50.176Z,99394.88
2022-12-22T01:48:10.615Z,99394.09
2022-12-22T01:53:34.788Z,99381.47
2022-12-22T01:59:00.001Z,99376.59
2022-12-22T02:04:20.933Z,99372.31
2022-12-22T02:09:49.701Z,99360.38
2022-12-22T02:15:18.395Z,99353.19
2022-12-22T02:20:57.193Z,99343.50
2022-12-22T02:26:20.793Z,99333.69
2022-12-22T02:31:43.470Z,99336.97
2022-12-22T02:37:09.405Z,99329.59
2022-12-22T02:42:35.371Z,99332.88
2022-12-22T02:48:03.599Z,99324.03
2022-12-22T02:53:24.289Z,99317.16
2022-12-22T02:58:44.468Z,99309.97
2022-12-22T03:04:06.580Z,99307.66
2022-12-22T03:09:27.051Z,99300.66
2022-12-22T03:14:47.186Z,99289.34
2022-12-22T03:20:08.598Z,99285.75
2022-12-22T03:25:28.623Z,99279.53
2022-12-22T03:30:31.376Z,99277.38
2022-12-22T03:35:35.563Z,99269.19
2022-12-22T03:40:38.266Z,99256.91
2022-12-22T03:45:58.856Z,99253.31
2022-12-22T03:51:02.998Z,99255.78
2022-12-22T03:56:08.078Z,99258.41
2022-12-22T04:01:11.156Z,99251.66
2022-12-22T04:06:15.281Z,99249.41
2022-12-22T04:11:36.751Z,99240.88
2022-12-22T04:16:39.595Z,99240.06
2022-12-22T04:21:43.952Z,99242.00
2022-12-22T04:26:46.867Z,99233.69
2022-12-22T04:31:49.802Z,99232.03
2022-12-22T04:36:53.896Z,99225.84
2022-12-22T04:41:56.753Z,99216.00
2022-12-22T04:46:59.469Z,99222.72
2022-12-22T04:52:03.588Z,99207.66
2022-12-22T04:57:06.358Z,99202.41
2022-12-22T05:02:09.160Z,99204.03
2022-12-22T05:07:13.356Z,99184.25
2022-12-22T05:12:33.509Z,99180.81
2022-12-22T05:17:36.330Z,99170.69
2022-12-22T05:22:40.436Z,99177.06
2022-12-22T05:27:43.226Z,99165.78
2022-12-22T05:32:46.063Z,99160.34
2022-12-22T05:37:50.188Z,99156.28
2022-12-22T05:42:53.013Z,99153.50
2022-12-22T05:47:55.696Z,99149.22
2022-12-22T05:52:59.909Z,99144.00
2022-12-22T05:58:03.093Z,99138.75
2022-12-22T06:03:06.149Z,99139.25
2022-12-22T06:08:10.295Z,99133.84
2022-12-22T06:13:13.054Z,99126.78
2022-12-22T06:18:15.793Z,99120.09
2022-12-22T06:23:20.046Z,99115.50
2022-12-22T06:28:22.877Z,99106.03
2022-12-22T06:33:25.662Z,99099.00
2022-12-22T06:38:29.796Z,99074.06
2022-12-22T06:43:32.481Z,99083.75
2022-12-22T06:48:35.250Z,99078.19
2022-12-22T06:53:39.411Z,99072.94
2022-12-22T06:58:42.127Z,99073.41
2022-12-22T07:03:44.996Z,99079.94
2022-12-22T07:08:49.565Z,99082.19
2022-12-22T07:13:52.953Z,99077.44
2022-12-22T07:18:56.098Z,99067.63
2022-12-22T07:24:00.202Z,99076.09
2022-12-22T07:29:03.017Z,99063.66
2022-12-22T07:34:05.743Z,99070.38
2022-12-22T07:39:09.966Z,99059.88
2022-12-22T07:44:12.678Z,99059.53
2022-12-22T07:49:32.733Z,99053.47
2022-12-22T07:54:41.626Z,99046.94
2022-12-22T07:59:45.345Z,99037.63
2022-12-22T08:04:48.114Z,99028.59
2022-12-22T08:09:52.341Z,99033.84
2022-12-22T08:14:55.305Z,99024.19
2022-12-22T08:19:58.697Z,99020.41
2022-12-22T08:25:02.788Z,99020.41
2022-12-22T08:30:07.319Z,99013.38
2022-12-22T08:35:11.121Z,99003.50
2022-12-22T08:40:18.890Z,99001.72
2022-12-22T08:45:22.827Z,99009.25
2022-12-22T08:50:25.647Z,99004.09
2022-12-22T08:55:29.810Z,99000.22
2022-12-22T09:00:32.668Z,99003.69
2022-12-22T09:05:38.458Z,98992.25
2022-12-22T09:10:44.666Z,98986.03
2022-12-22T09:15:47.500Z,98979.78
2022-12-22T09:20:55.878Z,98982.53
2022-12-22T09:25:59.975Z,98973.00
2022-12-22T09:31:02.772Z,98954.25
2022-12-22T09:36:07.285Z,98952.03
2022-12-22T09:41:17.772Z,98948.53
2022-12-22T09:46:23.187Z,98943.41
2022-12-22T09:51:27.607Z,98939.44
2022-12-22T09:56:31.940Z,98949.41
2022-12-22T10:01:43.988Z,98925.28
2022-12-22T10:06:52.422Z,98926.25
2022-12-22T10:11:58.709Z,98928.00
2022-12-22T10:17:19.402Z,98916.91
2022-12-22T10:22:27.468Z,98905.59
2022-12-22T10:27:34.243Z,98901.72
2022-12-22T10:32:37.990Z,98907.69
2022-12-22T10:37:41.949Z,98911.41
2022-12-22T10:42:49.512Z,98912.75
2022-12-22T10:47:54.616Z,98917.81
2022-12-22T10:52:58.971Z,98903.25
2022-12-22T10:58:17.274Z,98893.47
2022-12-22T11:03:30.851Z,98896.00
2022-12-22T11:08:34.053Z,98888.06
2022-12-22T11:13:48.841Z,98887.88
2022-12-22T11:19:03.316Z,98877.94
2022-12-22T11:24:19.037Z,98872.75
2022-12-22T11:29:36.783Z,98863.38
2022-12-22T11:34:50.653Z,98857.53
2022-12-22T11:39:59.253Z,98848.47
2022-12-22T11:45:11.300Z,98853.16
2022-12-22T11:51:01.384Z,98841.22
2022-12-22T11:56:07.780Z,98847.28
2022-12-22T12:01:34.431Z,98853.16
2022-12-22T12:06:52.487Z,98855.78
2022-12-22T12:11:59.357Z,98855.78
2022-12-22T12:17:12.257Z,98857.97
2022-12-22T12:22:21.953Z,98862.22
2022-12-22T12:27:37.995Z,98855.97
2022-12-22T12:32:45.395Z,98852.91
2022-12-22T12:37:52.098Z,98854.91
2022-12-22T12:42:55.489Z,98853.56
2022-12-22T12:48:41.501Z,98851.09
2022-12-22T12:54:34.874Z,98848.28
2022-12-22T12:59:47.315Z,98852.09
2022-12-22T13:05:28.454Z,98851.53
2022-12-22T13:10:33.596Z,98864.00
2022-12-22T13:15:41.321Z,98871.78
2022-12-22T13:20:46.087Z,98870.97
2022-12-22T13:25:51.401Z,98882.66
2022-12-22T13:30:59.456Z,98905.75
2022-12-22T13:36:04.567Z,98913.25
2022-12-22T13:41:21.400Z,98921.06
2022-12-22T13:46:28.092Z,98941.78
2022-12-22T13:51:36.747Z,98946.75
2022-12-22T13:56:41.625Z,98958.94
2022-12-22T14:01:50.468Z,98969.78
2022-12-22T14:06:55.887Z,98976.22
2022-12-22T14:12:05.191Z,98991.06
2022-12-22T14:17:20.076Z,99003.03
2022-12-22T14:22:27.380Z,99008.66
2022-12-22T14:27:34.322Z,99022.75
2022-12-22T14:32:40.316Z,99023.09
2022-12-22T14:37:44.674Z,99037.34
2022-12-22T14:42:47.585Z,99047.03
2022-12-22T14:47:50.694Z,99061.47
2022-12-22T14:52:56.574Z,99072.16
2022-12-22T14:58:02.233Z,99085.41
2022-12-22T15:03:07.618Z,99100.66
2022-12-22T15:08:38.985Z,99110.34
2022-12-22T15:13:41.922Z,99130.50
2022-12-22T15:18:45.037Z,99143.78
2022-12-22T15:23:49.249Z,99162.47
2022-12-22T15:28:52.009Z,99174.91
2022-12-22T15:33:56.929Z,99190.50
2022-12-22T15:39:01.195Z,99200.84
2022-12-22T15:44:04.004Z,99207.41
2022-12-22T15:49:09.456Z,99220.38
2022-12-22T15:54:15.109Z,99223.66
2022-12-22T15:59:20.490Z,99227.28
2022-12-22T16:04:23.807Z,99236.78
2022-12-22T16:09:32.433Z,99241.03
2022-12-22T16:14:40.611Z,99251.50
2022-12-22T16:19:46.442Z,99249.56
2022-12-22T16:24:51.391Z,99261.34
2022-12-22T16:29:55.052Z,99264.13
2022-12-22T16:35:08.176Z,99265.59
2022-12-22T16:40:13.606Z,99285.91
2022-12-22T16:45:19.354Z,99291.78
2022-12-22T16:50:24.081Z,99306.38
2022-12-22T16:55:28.919Z,99297.19
2022-12-22T17:00:33.275Z,99306.34
2022-12-22T17:05:43.978Z,99311.09
2022-12-22T17:10:49.387Z,99315.84
2022-12-22T17:15:52.216Z,99309.44
2022-12-22T17:20:56.900Z,99315.03
2022-12-22T17:26:03.497Z,99326.00
2022-12-22T17:31:06.801Z,99325.34
2022-12-22T17:36:18.768Z,99326.97
2022-12-22T17:41:23.087Z,99318.78
2022-12-22T17:46:26.164Z,99316.84
2022-12-22T17:51:30.213Z,99315.69
2022-12-22T17:56:34.656Z,99308.66
2022-12-22T18:01:39.278Z,99312.72
2022-12-22T18:06:42.509Z,99306.53
2022-12-22T18:11:46.743Z,99296.53
2022-12-22T18:16:49.578Z,99301.59
2022-12-22T18:21:52.510Z,99307.00
2022-12-22T18:26:56.599Z,99311.09
2022-12-22T18:31:59.467Z,99307.69
2022-12-22T18:37:03.323Z,99298.03
2022-12-22T18:42:18.265Z,99301.78
2022-12-22T18:47:21.089Z,99305.88
2022-12-22T18:52:25.622Z,99306.19
2022-12-22T18:57:30.065Z,99300.47
2022-12-22T19:02:33.497Z,99311.28
2022-12-22T19:07:36.410Z,99304.56
2022-12-22T19:12:40.513Z,99302.91
2022-12-22T19:17:43.225Z,99302.91
2022-12-22T19:22:46.623Z,99302.59
2022-12-22T19:27:52.881Z,99302.44
2022-12-22T19:33:01.425Z,99296.53
2022-12-22T19:38:17.665Z,99304.06
2022-12-22T19:43:22.262Z,99304.38
2022-12-22T19:48:27.057Z,99313.22
2022-12-22T19:53:29.933Z,99304.06
2022-12-22T19:58:37.632Z,99296.69
2022-12-22T20:03:40.596Z,99289.78
2022-12-22T20:08:43.512Z,99298.16
2022-12-22T20:13:48.468Z,99288.66
2022-12-22T20:18:51.235Z,99286.84
2022-12-22T20:23:54.490Z,99281.78
2022-12-22T20:28:58.717Z,99283.75
2022-12-22T20:34:01.462Z,99280.97
2022-12-22T20:39:11.975Z,99277.19
2022-12-22T20:44:16.226Z,99271.63
2022-12-22T20:49:18.931Z,99269.69
2022-12-22T20:54:21.890Z,99260.34
2022-12-22T20:59:26.080Z,99256.59
2022-12-22T21:04:28.832Z,99242.38
2022-12-22T21:09:31.705Z,99249.06
2022-12-22T21:14:35.869Z,99242.38
2022-12-22T21:19:38.833Z,99242.69
2022-12-22T21:24:41.916Z,99247.13
2022-12-22T21:29:46.834Z,99249.06
2022-12-22T21:34:49.558Z,99241.38
2022-12-22T21:39:52.459Z,99238.78
2022-12-22T21:44:57.051Z,99237.63
2022-12-22T21:49:59.850Z,99232.41
2022-12-22T21:55:05.206Z,99225.34
2022-12-22T22:00:11.747Z,99222.59
2022-12-22T22:05:23.770Z,99214.06
2022-12-22T22:10:28.188Z,99211.94
2022-12-22T22:15:34.867Z,99209.13
2022-12-22T22:20:37.760Z,99192.78
2022-12-22T22:25:40.892Z,99180.66
2022-12-22T22:30:45.072Z,99171.31
2022-12-22T22:35:48.151Z,99166.72
2022-12-22T22:40:50.850Z,99162.47
2022-12-22T22:45:54.916Z,99154.97
2022-12-22T22:50:57.686Z,99146.47
2022-12-22T22:56:02.443Z,99147.91
2022-12-22T23:01:07.945Z,99137.13
2022-12-22T23:06:13.453Z,99132.84
2022-12-22T23:11:16.700Z,99120.22
2022-12-22T23:16:21.553Z,99108.97
2022-12-22T23:21:25.308Z,99108.44
2022-12-22T23:26:28.289Z,99095.66
2022-12-22T23:31:32.687Z,99077.13
2022-12-22T23:36:35.547Z,99081.56
2022-12-22T23:41:38.525Z,99082.84
2022-12-22T23:46:42.701Z,99068.94
2022-12-22T23:51:45.563Z,99067.44
2022-12-22T23:56:48.289Z,99056.44
